Time;durP1;ratioP1;P1;durP2;ratioP2;P2;SDS_P1;SDS_P2;PMS_P1;PMS_P2;Temp;Humidity;BMP_temperature;BMP_pressure;BME280_temperature;BME280_humidity;BME280_pressure;Samples;Min_cycle;Max_cycle;Signal;HPM_P1;HPM_P2
2022/10/11 00:00:35;;;;;;;11.38;4.38;;;11.30;76.90;;;;;;5113478;28;20031;-58
2022/10/11 00:03:01;;;;;;;9.20;4.07;;;11.30;76.90;;;;;;5112481;28;20089;-59
2022/10/11 00:05:27;;;;;;;9.75;4.32;;;11.30;76.90;;;;;;5100019;28;20036;-58
2022/10/11 00:07:53;;;;;;;13.00;4.72;;;11.30;76.90;;;;;;5111658;28;20078;-59
2022/10/11 00:10:19;;;;;;;8.68;4.28;;;11.30;76.80;;;;;;5129204;28;20028;-59
2022/10/11 00:12:45;;;;;;;9.02;4.15;;;11.30;76.80;;;;;;5113346;28;20425;-58
2022/10/11 00:15:13;;;;;;;11.70;4.22;;;11.20;76.80;;;;;;5113820;28;20039;-59
2022/10/11 00:17:38;;;;;;;8.35;4.13;;;11.20;76.80;;;;;;5117076;28;20024;-58
2022/10/11 00:20:05;;;;;;;11.45;4.18;;;11.20;76.90;;;;;;5116884;27;20046;-59
2022/10/11 00:22:30;;;;;;;9.38;4.38;;;11.20;76.80;;;;;;5117077;28;20034;-58
2022/10/11 00:24:57;;;;;;;9.15;3.88;;;11.20;76.70;;;;;;5117655;27;20114;-59
2022/10/11 00:27:23;;;;;;;11.90;4.60;;;11.20;76.80;;;;;;5133109;27;20036;-59
2022/10/11 00:29:49;;;;;;;9.90;4.82;;;11.10;76.70;;;;;;5132501;27;20047;-59
2022/10/11 00:32:15;;;;;;;8.65;4.07;;;11.10;76.70;;;;;;5118026;28;20047;-59
2022/10/11 00:34:40;;;;;;;10.77;4.03;;;11.10;76.70;;;;;;5117087;28;20031;-58
2022/10/11 00:37:06;;;;;;;10.80;4.32;;;11.10;76.70;;;;;;5119092;27;20825;-58
2022/10/11 00:39:32;;;;;;;9.68;4.22;;;11.10;76.70;;;;;;5116585;27;20380;-58
2022/10/11 00:41:57;;;;;;;10.65;4.35;;;11.10;76.70;;;;;;5117272;28;20055;-59
2022/10/11 00:44:25;;;;;;;10.10;4.25;;;11.10;76.70;;;;;;5117036;27;20042;-59
2022/10/11 00:46:59;;;;;;;10.05;3.92;;;11.00;76.70;;;;;;5116511;28;20038;-59
2022/10/11 00:49:38;;;;;;;9.30;4.25;;;11.00;76.70;;;;;;5116825;27;20028;-59
2022/10/11 00:52:30;;;;;;;10.13;4.00;;;11.00;77.40;;;;;;5116673;28;20381;-59
2022/10/11 00:54:59;;;;;;;9.65;3.95;;;11.00;76.60;;;;;;5110081;28;20084;-59
2022/10/11 00:57:30;;;;;;;9.80;4.03;;;11.00;76.70;;;;;;5116228;28;20429;-59
2022/10/11 00:59:56;;;;;;;9.93;3.90;;;11.00;76.80;;;;;;5115663;28;20150;-59
2022/10/11 01:02:23;;;;;;;8.75;3.60;;;11.00;76.80;;;;;;5117057;28;20027;-59
2022/10/11 01:04:50;;;;;;;7.75;3.80;;;11.00;76.90;;;;;;5115618;28;20027;-59
2022/10/11 01:07:18;;;;;;;9.18;3.95;;;11.00;76.90;;;;;;5136924;27;20027;-58
2022/10/11 01:09:44;;;;;;;7.22;3.50;;;11.00;77.50;;;;;;5118211;27;20028;-59
2022/10/11 01:12:22;;;;;;;8.05;3.75;;;11.00;76.80;;;;;;5116746;28;20030;-59
2022/10/11 01:15:07;;;;;;;8.27;3.55;;;11.00;76.80;;;;;;5117023;27;20036;-59
2022/10/11 01:17:51;;;;;;;7.32;3.78;;;10.90;76.70;;;;;;5110661;28;20371;-58
2022/10/11 01:20:36;;;;;;;7.38;3.38;;;10.90;76.80;;;;;;5114936;27;20039;-58
2022/10/11 01:23:16;;;;;;;8.77;4.07;;;10.90;76.90;;;;;;5123379;27;20448;-58
2022/10/11 01:26:13;;;;;;;8.55;4.05;;;10.90;76.90;;;;;;5115566;28;20054;-58
2022/10/11 01:28:47;;;;;;;8.65;4.05;;;10.90;76.90;;;;;;5114752;28;20514;-59
2022/10/11 01:31:39;;;;;;;9.02;3.78;;;10.90;76.90;;;;;;5123493;27;20102;-59
2022/10/11 01:34:15;;;;;;;7.93;3.38;;;10.90;76.90;;;;;;5115151;27;20055;-58
2022/10/11 01:36:56;;;;;;;7.57;3.92;;;10.90;77.00;;;;;;5116627;28;20118;-59
2022/10/11 01:39:29;;;;;;;9.50;4.32;;;10.80;77.00;;;;;;5115165;27;20043;-59
2022/10/11 01:41:59;;;;;;;7.75;4.05;;;10.80;77.00;;;;;;5129685;27;20031;-58
2022/10/11 01:44:25;;;;;;;9.85;4.43;;;10.90;77.10;;;;;;5115548;27;20088;-58
2022/10/11 01:46:54;;;;;;;8.77;4.10;;;10.90;77.10;;;;;;5116454;28;20085;-58
2022/10/11 01:49:20;;;;;;;9.20;4.18;;;10.80;77.10;;;;;;5114432;28;20016;-59
2022/10/11 01:51:52;;;;;;;8.88;4.53;;;10.80;77.10;;;;;;5115734;27;20433;-59
2022/10/11 01:54:32;;;;;;;11.80;5.38;;;10.80;77.10;;;;;;5114474;27;20035;-59
2022/10/11 01:57:25;;;;;;;8.90;4.15;;;10.80;77.00;;;;;;5102171;28;20521;-59
2022/10/11 02:00:14;;;;;;;10.43;4.30;;;10.80;77.00;;;;;;5114096;27;20020;-57
2022/10/11 02:03:18;;;;;;;9.85;4.10;;;10.80;77.00;;;;;;5115344;28;20034;-58
2022/10/11 02:05:55;;;;;;;10.68;4.43;;;10.70;77.00;;;;;;5129203;27;20047;-59
2022/10/11 02:08:36;;;;;;;13.48;4.20;;;10.70;77.10;;;;;;5115857;28;20114;-57
2022/10/11 02:11:20;;;;;;;11.25;4.18;;;10.70;77.10;;;;;;5114669;27;20029;-58
2022/10/11 02:13:54;;;;;;;10.32;4.25;;;10.70;77.00;;;;;;5115710;27;20433;-58
2022/10/11 02:16:25;;;;;;;8.50;3.95;;;10.70;77.00;;;;;;5116195;28;20027;-59
2022/10/11 02:18:53;;;;;;;10.05;4.18;;;10.70;77.10;;;;;;5113841;28;20099;-56
2022/10/11 02:21:22;;;;;;;11.10;4.63;;;10.70;77.10;;;;;;5115946;27;20127;-57
2022/10/11 02:23:55;;;;;;;9.30;3.92;;;10.70;77.00;;;;;;5115157;28;20027;-59
2022/10/11 02:26:23;;;;;;;8.73;4.00;;;10.60;76.90;;;;;;5119423;27;20363;-59
2022/10/11 02:28:54;;;;;;;8.55;4.15;;;10.60;77.00;;;;;;5113724;27;20023;-59
2022/10/11 02:31:21;;;;;;;8.53;3.47;;;10.60;77.10;;;;;;5114910;28;20035;-59
2022/10/11 02:34:01;;;;;;;9.63;3.70;;;10.60;77.00;;;;;;5113767;28;20024;-59
2022/10/11 02:36:38;;;;;;;9.25;4.22;;;10.60;77.00;;;;;;5114696;28;20309;-59
2022/10/11 02:39:14;;;;;;;6.78;3.60;;;10.60;77.00;;;;;;5114504;27;20067;-59
2022/10/11 02:41:41;;;;;;;7.90;3.75;;;10.50;76.90;;;;;;5134280;27;20031;-59
2022/10/11 02:44:16;;;;;;;8.35;3.65;;;10.50;77.00;;;;;;5112434;27;20046;-57
2022/10/11 02:46:44;;;;;;;7.57;3.65;;;10.50;76.90;;;;;;5130453;27;20049;-59
2022/10/11 02:49:11;;;;;;;8.88;3.30;;;10.50;76.90;;;;;;5114075;28;20164;-59
2022/10/11 02:51:37;;;;;;;8.38;3.88;;;10.50;76.90;;;;;;5114287;27;20028;-59
2022/10/11 02:54:03;;;;;;;7.75;3.78;;;10.50;76.90;;;;;;5114910;28;20364;-59
2022/10/11 02:56:29;;;;;;;7.78;3.60;;;10.50;76.90;;;;;;5113572;28;20036;-58
2022/10/11 02:58:54;;;;;;;9.73;4.28;;;10.40;76.80;;;;;;5113815;28;20027;-59
2022/10/11 03:01:20;;;;;;;10.68;3.78;;;10.40;76.80;;;;;;5116251;27;20034;-59
2022/10/11 03:03:46;;;;;;;8.60;3.58;;;10.40;76.70;;;;;;5096768;28;20459;-59
2022/10/11 03:06:11;;;;;;;9.00;3.80;;;10.40;76.70;;;;;;5114647;28;20038;-59
2022/10/11 03:08:37;;;;;;;8.77;3.70;;;10.40;76.70;;;;;;5113685;28;20024;-58
2022/10/11 03:11:02;;;;;;;7.90;4.00;;;10.40;76.70;;;;;;5113824;28;20024;-59
2022/10/11 03:13:28;;;;;;;7.65;3.50;;;10.40;76.80;;;;;;5098324;27;20099;-57
2022/10/11 03:15:54;;;;;;;10.75;4.93;;;10.40;76.80;;;;;;5122250;27;20479;-58
2022/10/11 03:18:20;;;;;;;7.75;3.78;;;10.40;76.70;;;;;;5100379;28;20166;-59
2022/10/11 03:20:46;;;;;;;8.00;4.03;;;10.40;76.70;;;;;;5113450;27;20031;-59
2022/10/11 03:23:13;;;;;;;7.78;4.00;;;10.40;76.70;;;;;;5114089;28;20034;-59
2022/10/11 03:25:39;;;;;;;10.65;4.00;;;10.30;76.70;;;;;;5113882;28;20071;-57
2022/10/11 03:28:04;;;;;;;8.90;4.00;;;10.30;76.80;;;;;;5114335;28;20023;-59
2022/10/11 03:30:30;;;;;;;6.93;3.53;;;10.30;76.80;;;;;;5112038;28;20088;-58
2022/10/11 03:32:56;;;;;;;8.90;3.83;;;10.30;76.90;;;;;;5114721;28;20154;-57
2022/10/11 03:35:22;;;;;;;9.23;3.40;;;10.40;76.90;;;;;;5114903;27;20405;-59
2022/10/11 03:37:48;;;;;;;11.48;4.03;;;10.40;76.90;;;;;;5113998;28;20028;-58
2022/10/11 03:40:13;;;;;;;9.80;3.42;;;10.40;76.80;;;;;;5112597;28;20456;-57
2022/10/11 03:42:39;;;;;;;6.85;3.65;;;10.30;76.80;;;;;;5114367;28;20028;-58
2022/10/11 03:45:07;;;;;;;7.07;3.80;;;10.30;76.90;;;;;;5113978;28;20027;-58
2022/10/11 03:47:34;;;;;;;7.53;3.42;;;10.30;76.90;;;;;;5112971;28;20093;-58
2022/10/11 03:50:00;;;;;;;8.10;3.80;;;10.40;77.70;;;;;;5118302;27;20023;-58
2022/10/11 03:52:26;;;;;;;10.13;3.92;;;10.40;77.10;;;;;;5119619;27;20114;-59
2022/10/11 03:54:52;;;;;;;6.75;3.53;;;10.40;77.10;;;;;;5116923;28;20076;-59
2022/10/11 03:57:18;;;;;;;8.23;3.75;;;10.40;77.10;;;;;;5122985;27;20039;-59
2022/10/11 03:59:43;;;;;;;8.07;3.58;;;10.40;77.20;;;;;;5122889;27;20031;-58
2022/10/11 04:02:09;;;;;;;8.20;3.95;;;10.40;77.30;;;;;;5122811;27;20063;-57
2022/10/11 04:04:34;;;;;;;8.32;3.50;;;10.40;78.00;;;;;;5120656;27;20035;-58
2022/10/11 04:07:00;;;;;;;7.57;3.80;;;10.40;77.30;;;;;;5120067;27;20051;-59
2022/10/11 04:09:26;;;;;;;8.32;4.00;;;10.40;77.30;;;;;;5102244;28;20105;-59
2022/10/11 04:11:51;;;;;;;6.70;3.40;;;10.40;77.40;;;;;;5105285;28;20317;-59
2022/10/11 04:14:17;;;;;;;8.63;3.80;;;10.40;77.40;;;;;;5105583;28;20032;-59
2022/10/11 04:16:42;;;;;;;9.02;3.55;;;10.40;77.40;;;;;;5107324;28;20028;-59
2022/10/11 04:19:08;;;;;;;8.52;3.88;;;10.40;77.40;;;;;;5113882;28;20039;-58
2022/10/11 04:21:34;;;;;;;8.80;3.70;;;10.40;77.50;;;;;;5122352;27;20459;-58
2022/10/11 04:23:59;;;;;;;7.72;3.53;;;10.40;77.50;;;;;;5118174;28;20028;-58
2022/10/11 04:26:26;;;;;;;7.63;3.40;;;10.40;77.60;;;;;;5116936;27;20035;-58
2022/10/11 04:28:51;;;;;;;8.93;3.67;;;10.50;77.60;;;;;;5120923;27;20031;-58
2022/10/11 04:31:17;;;;;;;9.23;4.13;;;10.50;77.60;;;;;;5116391;28;20032;-59
2022/10/11 04:33:42;;;;;;;7.72;3.67;;;10.50;77.70;;;;;;5113546;28;20024;-59
2022/10/11 04:36:08;;;;;;;9.23;3.90;;;10.50;77.70;;;;;;5113009;27;20059;-58
2022/10/11 04:38:34;;;;;;;9.35;4.07;;;10.50;77.80;;;;;;5117303;28;20078;-59
2022/10/11 04:41:12;;;;;;;11.65;4.07;;;10.50;77.80;;;;;;5116324;28;20366;-59
2022/10/11 04:43:37;;;;;;;7.65;3.25;;;10.50;77.90;;;;;;5116166;28;20027;-58
2022/10/11 04:46:04;;;;;;;6.75;3.25;;;10.50;77.90;;;;;;5117242;28;20050;-59
2022/10/11 04:48:30;;;;;;;7.45;3.55;;;10.50;78.00;;;;;;5116821;28;20023;-59
2022/10/11 04:50:55;;;;;;;10.18;3.50;;;10.60;78.00;;;;;;5120383;27;20019;-59
2022/10/11 04:53:21;;;;;;;9.95;3.67;;;10.60;78.00;;;;;;5118162;27;20432;-59
2022/10/11 04:56:02;;;;;;;7.15;3.67;;;10.60;78.00;;;;;;5115291;27;20032;-59
2022/10/11 04:58:29;;;;;;;7.03;3.58;;;10.60;78.10;;;;;;5115020;27;20039;-57
2022/10/11 05:00:54;;;;;;;10.15;4.05;;;10.60;78.10;;;;;;5116463;28;20024;-59
2022/10/11 05:03:20;;;;;;;7.55;3.42;;;10.60;78.10;;;;;;5116990;27;20042;-59
2022/10/11 05:05:46;;;;;;;9.00;3.85;;;10.60;78.10;;;;;;5116233;28;20035;-60
2022/10/11 05:08:12;;;;;;;7.93;3.40;;;10.60;78.10;;;;;;5115852;28;20020;-59
2022/10/11 05:10:37;;;;;;;7.60;3.15;;;10.60;78.10;;;;;;5116689;28;20036;-59
2022/10/11 05:13:03;;;;;;;6.90;3.30;;;10.50;78.10;;;;;;5116459;27;20019;-59
2022/10/11 05:15:28;;;;;;;7.30;3.55;;;10.50;78.10;;;;;;5112738;28;20032;-59
2022/10/11 05:17:54;;;;;;;10.20;3.15;;;10.50;78.10;;;;;;5114960;27;20016;-59
2022/10/11 05:20:19;;;;;;;7.60;3.35;;;10.50;78.10;;;;;;5118034;27;20020;-59
2022/10/11 05:22:45;;;;;;;10.35;3.70;;;10.50;78.10;;;;;;5116969;27;20035;-59
2022/10/11 05:25:11;;;;;;;7.65;3.40;;;10.50;78.10;;;;;;5116933;28;20019;-59
2022/10/11 05:27:36;;;;;;;8.10;3.95;;;10.50;78.10;;;;;;5116035;28;20039;-58
2022/10/11 05:30:04;;;;;;;6.53;3.28;;;10.40;78.00;;;;;;5117098;28;20107;-59
2022/10/11 05:32:29;;;;;;;8.90;3.38;;;10.40;78.10;;;;;;5117163;27;20042;-59
2022/10/11 05:34:55;;;;;;;6.70;3.50;;;10.40;78.00;;;;;;5115602;28;20028;-59
2022/10/11 05:37:21;;;;;;;8.05;3.40;;;10.40;78.00;;;;;;5114691;28;20127;-59
2022/10/11 05:39:46;;;;;;;9.20;3.90;;;10.40;78.00;;;;;;5116385;28;20028;-61
2022/10/11 05:42:12;;;;;;;8.43;4.13;;;10.30;77.90;;;;;;5115120;27;20031;-59
2022/10/11 05:44:38;;;;;;;9.35;4.15;;;10.30;77.90;;;;;;5116508;28;20031;-58
2022/10/11 05:47:03;;;;;;;8.82;3.45;;;10.30;78.00;;;;;;5115784;28;20029;-57
2022/10/11 05:49:29;;;;;;;9.75;3.63;;;10.30;77.90;;;;;;5116297;27;20028;-59
2022/10/11 05:51:55;;;;;;;9.90;3.65;;;10.30;77.80;;;;;;5116207;27;20018;-60
2022/10/11 05:54:21;;;;;;;7.68;4.07;;;10.30;77.80;;;;;;5115620;27;20027;-59
2022/10/11 05:56:47;;;;;;;8.05;3.63;;;10.30;77.80;;;;;;5115872;28;20031;-60
2022/10/11 05:59:13;;;;;;;10.85;4.50;;;10.20;78.30;;;;;;5118556;27;20050;-60
2022/10/11 06:01:38;;;;;;;8.52;3.95;;;10.20;77.70;;;;;;5114624;28;20027;-60
2022/10/11 06:04:05;;;;;;;10.07;4.30;;;10.20;77.70;;;;;;5116554;27;20058;-60
2022/10/11 06:06:30;;;;;;;8.88;4.15;;;10.30;77.60;;;;;;5114761;28;20071;-60
2022/10/11 06:08:56;;;;;;;8.85;3.80;;;10.20;77.60;;;;;;5117230;27;20030;-61
2022/10/11 06:11:25;;;;;;;9.02;3.92;;;10.20;77.50;;;;;;5110507;28;20032;-60
2022/10/11 06:13:56;;;;;;;11.27;4.22;;;10.20;77.60;;;;;;5111667;28;20042;-60
2022/10/11 06:16:23;;;;;;;11.93;4.40;;;10.20;77.60;;;;;;5112604;28;20039;-61
2022/10/11 06:18:55;;;;;;;9.10;3.75;;;10.20;77.60;;;;;;5114556;27;20039;-60
2022/10/11 06:21:22;;;;;;;14.18;4.45;;;10.30;77.60;;;;;;5123303;27;20088;-60
2022/10/11 06:23:52;;;;;;;9.70;4.15;;;10.30;77.60;;;;;;5114487;28;20367;-60
2022/10/11 06:26:18;;;;;;;10.00;4.07;;;10.30;77.60;;;;;;5113723;28;20058;-63
2022/10/11 06:28:44;;;;;;;10.10;4.18;;;10.30;77.60;;;;;;5115952;27;20023;-59
2022/10/11 06:31:11;;;;;;;9.45;3.63;;;10.30;77.60;;;;;;5112775;28;20024;-60
2022/10/11 06:33:37;;;;;;;8.43;3.50;;;10.40;77.70;;;;;;5113610;28;20031;-60
2022/10/11 06:36:06;;;;;;;9.13;3.63;;;10.40;77.60;;;;;;5115345;28;20106;-60
2022/10/11 06:38:32;;;;;;;8.15;3.72;;;10.50;77.70;;;;;;5115365;28;20092;-59
2022/10/11 06:41:08;;;;;;;7.13;3.83;;;10.50;77.70;;;;;;5132248;27;20369;-60
2022/10/11 06:43:34;;;;;;;10.77;4.80;;;10.50;77.70;;;;;;5129275;27;20018;-59
2022/10/11 06:45:59;;;;;;;12.48;6.25;;;10.60;77.70;;;;;;5122374;27;20448;-59
2022/10/11 06:48:25;;;;;;;13.25;6.53;;;10.60;77.70;;;;;;5115408;28;20062;-60
2022/10/11 06:50:51;;;;;;;10.43;5.65;;;10.70;77.70;;;;;;5115694;28;20039;-60
2022/10/11 06:53:17;;;;;;;8.77;4.53;;;10.70;77.70;;;;;;5115653;28;20027;-60
2022/10/11 06:55:42;;;;;;;10.30;5.15;;;10.70;77.70;;;;;;5115227;28;20177;-60
2022/10/11 06:58:08;;;;;;;9.30;4.15;;;10.80;77.70;;;;;;5118690;27;20046;-60
2022/10/11 07:00:33;;;;;;;8.88;4.20;;;10.80;77.80;;;;;;5122652;27;20034;-59
2022/10/11 07:02:59;;;;;;;6.85;3.40;;;10.80;77.80;;;;;;5114318;28;20031;-60
2022/10/11 07:05:25;;;;;;;7.57;3.90;;;10.90;77.80;;;;;;5114249;28;20038;-60
2022/10/11 07:07:51;;;;;;;9.00;4.43;;;10.90;77.80;;;;;;5115561;28;20023;-59
2022/10/11 07:10:16;;;;;;;9.43;4.40;;;11.00;77.80;;;;;;5115121;28;20039;-60
2022/10/11 07:12:43;;;;;;;9.05;4.22;;;11.00;77.70;;;;;;5115323;28;20451;-60
2022/10/11 07:15:09;;;;;;;10.98;4.78;;;11.10;77.70;;;;;;5114387;28;20020;-60
2022/10/11 07:17:35;;;;;;;9.07;4.65;;;11.10;77.70;;;;;;5114096;28;20113;-60
2022/10/11 07:20:00;;;;;;;7.88;4.22;;;11.20;77.80;;;;;;5114017;28;20043;-60
2022/10/11 07:22:26;;;;;;;9.40;4.03;;;11.20;77.80;;;;;;5122973;27;20072;-60
2022/10/11 07:24:52;;;;;;;9.98;4.70;;;11.20;77.80;;;;;;5111070;28;20023;-60
2022/10/11 07:27:17;;;;;;;7.32;3.80;;;11.20;77.80;;;;;;5113993;28;20051;-60
2022/10/11 07:29:43;;;;;;;9.55;4.18;;;11.30;77.80;;;;;;5113493;28;20493;-60
2022/10/11 07:32:08;;;;;;;10.93;3.92;;;11.30;77.80;;;;;;5114233;28;20540;-61
2022/10/11 07:34:34;;;;;;;9.18;3.97;;;11.40;77.80;;;;;;5112013;28;20384;-61
2022/10/11 07:37:00;;;;;;;7.80;3.72;;;11.40;77.70;;;;;;5111650;27;20024;-60
2022/10/11 07:39:25;;;;;;;11.88;4.20;;;11.40;77.70;;;;;;5111899;28;20356;-60
2022/10/11 07:41:51;;;;;;;9.02;4.28;;;11.50;77.80;;;;;;5111460;28;20030;-60
2022/10/11 07:44:16;;;;;;;9.70;4.10;;;11.50;77.70;;;;;;5112183;28;20206;-60
2022/10/11 07:46:42;;;;;;;11.07;4.63;;;11.60;77.70;;;;;;5109924;28;20036;-59
2022/10/11 07:49:08;;;;;;;9.68;4.70;;;11.70;77.70;;;;;;5111547;28;20448;-60
2022/10/11 07:51:33;;;;;;;9.90;4.65;;;11.70;77.60;;;;;;5111379;28;20666;-59
2022/10/11 07:53:59;;;;;;;8.77;3.92;;;11.70;77.50;;;;;;5112404;28;20023;-60
2022/10/11 07:56:27;;;;;;;10.30;4.63;;;11.80;77.60;;;;;;5111627;28;20023;-60
2022/10/11 07:58:55;;;;;;;9.18;4.43;;;11.80;77.60;;;;;;5094076;28;20345;-60
2022/10/11 08:01:22;;;;;;;7.50;4.00;;;11.80;77.50;;;;;;5111180;28;20027;-60
2022/10/11 08:03:48;;;;;;;10.30;4.63;;;11.80;78.20;;;;;;5110130;28;20032;-59
2022/10/11 08:06:17;;;;;;;8.55;3.97;;;11.90;77.50;;;;;;5111602;28;20036;-60
2022/10/11 08:08:43;;;;;;;8.30;3.92;;;12.00;77.50;;;;;;5110494;28;20019;-59
2022/10/11 08:11:09;;;;;;;10.45;3.63;;;12.00;77.30;;;;;;5113230;28;20028;-60
2022/10/11 08:13:35;;;;;;;8.68;4.07;;;12.10;77.30;;;;;;5113506;28;20035;-60
2022/10/11 08:16:09;;;;;;;9.65;4.40;;;12.20;77.90;;;;;;5112675;28;20027;-60
2022/10/11 08:18:34;;;;;;;7.78;4.03;;;12.30;77.10;;;;;;5104801;28;20048;-59
2022/10/11 08:21:08;;;;;;;10.13;3.97;;;12.40;76.90;;;;;;5111852;28;20036;-60
2022/10/11 08:23:34;;;;;;;10.00;4.13;;;12.50;76.70;;;;;;5113249;28;20568;-60
2022/10/11 08:25:59;;;;;;;9.95;4.10;;;12.60;76.50;;;;;;5111525;28;20036;-59
2022/10/11 08:28:25;;;;;;;8.60;4.15;;;12.60;76.40;;;;;;5110805;28;20107;-60
2022/10/11 08:30:52;;;;;;;11.57;5.55;;;12.70;76.30;;;;;;5112133;28;20026;-59
2022/10/11 08:33:20;;;;;;;13.38;4.80;;;12.80;76.10;;;;;;5100027;28;20028;-60
2022/10/11 08:35:46;;;;;;;12.93;4.75;;;13.00;75.90;;;;;;5114101;28;20038;-59
2022/10/11 08:38:12;;;;;;;10.85;4.55;;;13.10;75.60;;;;;;5117758;28;20027;-58
2022/10/11 08:40:48;;;;;;;10.68;4.15;;;13.30;75.40;;;;;;5119002;27;20984;-60
2022/10/11 08:43:55;;;;;;;10.57;4.13;;;13.40;75.10;;;;;;5119268;27;20037;-60
2022/10/11 08:46:25;;;;;;;12.20;4.90;;;13.60;74.80;;;;;;5113177;28;20043;-60
2022/10/11 08:48:52;;;;;;;13.50;4.10;;;13.80;74.40;;;;;;5116551;28;20416;-59
2022/10/11 08:51:38;;;;;;;8.05;4.15;;;14.00;74.00;;;;;;5117261;27;20035;-59
2022/10/11 08:54:53;;;;;;;10.90;3.80;;;14.20;73.50;;;;;;5118243;28;20031;-59
2022/10/11 08:57:22;;;;;;;10.02;3.85;;;14.50;73.00;;;;;;5099347;28;20058;-59
2022/10/11 09:00:01;;;;;;;11.35;4.50;;;14.70;72.60;;;;;;5117714;27;20031;-59
2022/10/11 09:03:00;;;;;;;12.48;3.78;;;14.90;72.00;;;;;;5118003;28;20519;-59
2022/10/11 09:05:38;;;;;;;8.90;3.78;;;15.00;71.60;;;;;;5117978;28;20397;-59
2022/10/11 09:08:14;;;;;;;25.67;12.43;;;15.20;71.40;;;;;;5117269;28;20038;-59
2022/10/11 09:10:48;;;;;;;16.55;7.15;;;15.30;71.10;;;;;;5112607;28;20333;-60
2022/10/11 09:13:30;;;;;;;12.35;4.88;;;15.50;70.70;;;;;;5111402;28;20100;-60
2022/10/11 09:16:20;;;;;;;10.65;4.43;;;15.60;70.20;;;;;;5119178;27;20028;-60
2022/10/11 09:19:08;;;;;;;11.07;4.55;;;15.70;69.90;;;;;;5116395;27;20042;-59
2022/10/11 09:21:41;;;;;;;9.45;3.78;;;15.90;69.40;;;;;;5116883;28;20027;-59
2022/10/11 09:24:19;;;;;;;7.90;3.35;;;16.00;69.10;;;;;;5106455;28;20031;-60
2022/10/11 09:26:51;;;;;;;9.95;3.45;;;16.10;68.80;;;;;;5116635;28;20035;-60
2022/10/11 09:29:43;;;;;;;9.43;3.47;;;16.20;68.60;;;;;;5111329;28;20024;-59
2022/10/11 09:32:15;;;;;;;9.07;3.20;;;16.30;68.20;;;;;;5112512;28;20478;-60
2022/10/11 09:34:41;;;;;;;10.98;4.07;;;16.40;68.00;;;;;;5116708;27;20024;-60
2022/10/11 09:37:26;;;;;;;9.07;3.33;;;16.50;67.90;;;;;;5116344;28;20135;-60
2022/10/11 09:40:22;;;;;;;12.30;4.05;;;16.60;67.80;;;;;;5116293;28;20032;-60
2022/10/11 09:42:48;;;;;;;7.93;3.22;;;16.60;67.70;;;;;;5115332;28;20031;-59
2022/10/11 09:45:17;;;;;;;11.32;3.33;;;16.70;67.60;;;;;;5116578;28;20114;-59
2022/10/11 09:47:43;;;;;;;10.07;3.00;;;16.80;67.30;;;;;;5115319;28;20402;-58
2022/10/11 09:50:18;;;;;;;8.65;3.20;;;16.80;67.20;;;;;;5116790;27;20072;-60
2022/10/11 09:52:53;;;;;;;9.57;4.00;;;16.90;67.00;;;;;;5123482;27;20312;-60
2022/10/11 09:55:35;;;;;;;9.05;2.95;;;16.90;67.40;;;;;;5115150;28;20039;-60
2022/10/11 09:58:03;;;;;;;10.55;3.35;;;17.10;66.70;;;;;;5116281;28;20397;-60
2022/10/11 10:00:33;;;;;;;9.65;2.97;;;17.20;66.40;;;;;;5116255;28;20085;-60
2022/10/11 10:03:01;;;;;;;8.75;3.10;;;17.30;66.00;;;;;;5116008;28;20102;-60
2022/10/11 10:05:34;;;;;;;8.95;2.90;;;17.30;65.70;;;;;;5116103;28;20027;-60
2022/10/11 10:08:08;;;;;;;10.23;3.13;;;17.40;65.60;;;;;;5115558;28;20480;-60
2022/10/11 10:10:37;;;;;;;10.48;3.28;;;17.50;65.30;;;;;;5114818;28;20052;-58
2022/10/11 10:13:22;;;;;;;9.73;3.28;;;17.50;65.30;;;;;;5116261;28;20097;-59
2022/10/11 10:15:52;;;;;;;7.03;3.08;;;17.60;65.00;;;;;;5119502;27;20331;-60
2022/10/11 10:18:23;;;;;;;7.35;2.53;;;17.60;64.70;;;;;;5119913;27;20035;-60
2022/10/11 10:20:54;;;;;;;9.38;2.63;;;17.60;64.50;;;;;;5115733;28;20016;-59
2022/10/11 10:23:27;;;;;;;8.63;2.90;;;17.70;64.30;;;;;;5116115;28;20069;-59
2022/10/11 10:26:10;;;;;;;11.35;2.60;;;17.80;64.20;;;;;;5114871;28;20031;-59
2022/10/11 10:28:35;;;;;;;8.82;2.70;;;17.90;63.90;;;;;;5109903;28;20019;-60
2022/10/11 10:31:01;;;;;;;8.02;2.55;;;17.90;63.80;;;;;;5115774;28;20378;-60
2022/10/11 10:33:33;;;;;;;8.68;2.58;;;18.00;63.60;;;;;;5110019;28;20036;-60
2022/10/11 10:36:16;;;;;;;7.90;2.30;;;18.00;63.00;;;;;;5109702;28;20061;-60
2022/10/11 10:39:00;;;;;;;9.15;2.47;;;18.00;62.60;;;;;;5118981;27;20110;-60
2022/10/11 10:41:26;;;;;;;8.38;2.20;;;18.00;62.30;;;;;;5118978;27;20049;-60
2022/10/11 10:43:56;;;;;;;8.15;2.67;;;18.00;62.30;;;;;;5115851;28;20023;-60
2022/10/11 10:46:27;;;;;;;7.07;2.30;;;18.00;62.00;;;;;;5115638;28;20032;-60
2022/10/11 10:49:11;;;;;;;7.93;2.60;;;18.10;61.70;;;;;;5115613;28;20027;-60
2022/10/11 10:52:04;;;;;;;5.43;1.80;;;18.00;61.10;;;;;;5115240;28;20288;-60
2022/10/11 10:54:33;;;;;;;8.98;2.15;;;18.00;61.00;;;;;;5104190;28;20440;-60
2022/10/11 10:57:09;;;;;;;8.48;2.53;;;18.10;61.10;;;;;;5115129;28;20042;-60
2022/10/11 11:00:00;;;;;;;10.48;2.45;;;18.20;61.00;;;;;;5115281;28;20042;-60
2022/10/11 11:02:47;;;;;;;11.10;2.35;;;18.20;61.10;;;;;;5115337;28;20088;-60
2022/10/11 11:06:00;;;;;;;7.80;1.90;;;18.20;60.40;;;;;;5115590;28;20107;-61
2022/10/11 11:08:52;;;;;;;7.55;2.30;;;18.10;60.40;;;;;;5071909;28;20408;-60
2022/10/11 11:11:44;;;;;;;8.23;2.65;;;18.10;60.50;;;;;;5073387;28;20457;-61
2022/10/11 11:14:20;;;;;;;10.60;2.20;;;18.20;60.10;;;;;;5073100;28;20035;-60
2022/10/11 11:16:46;;;;;;;7.38;2.03;;;18.20;59.70;;;;;;5056410;28;20056;-60
2022/10/11 11:19:34;;;;;;;8.25;2.22;;;18.20;59.60;;;;;;5055868;28;20075;-60
2022/10/11 11:22:26;;;;;;;7.25;1.90;;;18.30;59.30;;;;;;5072769;28;20025;-60
2022/10/11 11:24:58;;;;;;;9.30;2.05;;;18.30;59.10;;;;;;5071852;28;20078;-60
2022/10/11 11:27:29;;;;;;;;;;;18.30;58.90;;;;;;5073562;28;20139;-61
2022/10/11 11:30:09;;;;;;;7.47;2.05;;;18.30;59.20;;;;;;5072381;28;19908;-58
2022/10/11 11:32:40;;;;;;;9.07;1.80;;;18.20;58.80;;;;;;5056103;28;20372;-60
2022/10/11 11:35:16;;;;;;;7.70;2.28;;;18.20;58.50;;;;;;5072484;28;20060;-60
2022/10/11 11:37:45;;;;;;;7.32;2.05;;;18.20;58.30;;;;;;5055184;28;20044;-60
2022/10/11 11:40:11;;;;;;;9.15;1.98;;;18.10;58.30;;;;;;5059223;28;20040;-60
2022/10/11 11:42:45;;;;;;;8.95;2.20;;;18.20;58.10;;;;;;5072939;28;20112;-60
2022/10/11 11:45:57;;;;;;;9.50;2.38;;;18.20;57.80;;;;;;5100493;28;20487;-60
2022/10/11 11:48:25;;;;;;;7.72;2.30;;;18.20;58.40;;;;;;5097906;28;20040;-61
2022/10/11 11:51:14;;;;;;;10.50;2.08;;;18.20;57.80;;;;;;5113779;28;20031;-60
2022/10/11 11:53:46;;;;;;;7.18;1.85;;;18.30;57.70;;;;;;5131150;28;20035;-59
2022/10/11 11:56:32;;;;;;;8.30;2.00;;;18.30;57.60;;;;;;5113183;28;20023;-60
2022/10/11 11:59:14;;;;;;;7.70;1.98;;;18.40;57.30;;;;;;5114801;28;20035;-60
2022/10/11 12:02:00;;;;;;;9.02;2.00;;;18.40;57.30;;;;;;5114777;28;20032;-60
2022/10/11 12:04:30;;;;;;;6.55;1.83;;;18.40;57.50;;;;;;5114834;28;20019;-60
2022/10/11 12:07:07;;;;;;;9.87;2.33;;;18.40;57.50;;;;;;5114746;28;20111;-60
2022/10/11 12:09:35;;;;;;;6.45;1.67;;;18.40;57.10;;;;;;5113819;28;20015;-61
2022/10/11 12:12:05;;;;;;;8.43;1.83;;;18.40;57.20;;;;;;5116612;28;20020;-61
2022/10/11 12:14:40;;;;;;;6.95;2.17;;;18.40;57.20;;;;;;5118907;28;20084;-59
2022/10/11 12:17:19;;;;;;;10.00;2.30;;;18.40;57.00;;;;;;5118561;28;20384;-60
2022/10/11 12:20:07;;;;;;;9.68;1.77;;;18.40;56.70;;;;;;5118543;28;20104;-60
2022/10/11 12:22:33;;;;;;;8.00;2.22;;;18.20;56.60;;;;;;5134724;27;20031;-60
2022/10/11 12:25:00;;;;;;;7.38;2.03;;;18.10;56.70;;;;;;5118890;28;20034;-60
2022/10/11 12:27:44;;;;;;;7.40;2.08;;;18.10;56.90;;;;;;5132476;27;20119;-61
2022/10/11 12:30:45;;;;;;;7.15;2.13;;;18.10;56.80;;;;;;5117695;28;20389;-60
2022/10/11 12:33:23;;;;;;;8.00;2.00;;;18.10;56.70;;;;;;5117602;28;20080;-60
2022/10/11 12:35:52;;;;;;;9.60;2.00;;;18.10;56.50;;;;;;5118493;28;20100;-60
2022/10/11 12:38:29;;;;;;;7.25;2.20;;;18.10;56.70;;;;;;5117267;28;20023;-60
2022/10/11 12:40:59;;;;;;;12.80;2.15;;;18.00;56.80;;;;;;5118021;28;20326;-60
2022/10/11 12:43:35;;;;;;;6.65;1.80;;;17.90;57.00;;;;;;5117044;27;20035;-60
2022/10/11 12:46:28;;;;;;;5.40;1.45;;;17.80;57.20;;;;;;5106518;28;20577;-60
2022/10/11 12:49:15;;;;;;;7.35;2.03;;;17.60;57.20;;;;;;5118103;27;20083;-60
2022/10/11 12:51:53;;;;;;;7.78;2.13;;;17.50;57.60;;;;;;5134055;27;20092;-60
2022/10/11 12:54:57;;;;;;;5.20;1.75;;;17.40;57.60;;;;;;5105235;28;20020;-60
2022/10/11 12:57:51;;;;;;;5.65;1.58;;;17.30;57.70;;;;;;5117221;28;20031;-60
2022/10/11 13:00:17;;;;;;;7.10;1.27;;;17.10;58.00;;;;;;5113393;27;20046;-60
2022/10/11 13:02:43;;;;;;;7.65;1.63;;;17.00;58.40;;;;;;5114825;27;20028;-61
2022/10/11 13:05:30;;;;;;;9.05;1.98;;;17.00;58.50;;;;;;5116323;28;20114;-60
2022/10/11 13:08:01;;;;;;;7.15;1.77;;;16.90;58.80;;;;;;5129586;27;20421;-60